Time;durP1;ratioP1;P1;durP2;ratioP2;P2;SDS_P1;SDS_P2;PMS_P1;PMS_P2;Temp;Humidity;BMP_temperature;BMP_pressure;BME280_temperature;BME280_humidity;BME280_pressure;Samples;Min_cycle;Max_cycle;Signal;HPM_P1;HPM_P2
2022/01/11 00:01:42;;;;;;;68.68;38.03;;;3.90;63.80;;;;;;5073603;28;20152;-64
2022/01/11 00:04:15;;;;;;;71.10;37.35;;;4.00;63.80;;;;;;5071781;28;20043;-65
2022/01/11 00:06:45;;;;;;;66.30;35.28;;;4.00;63.50;;;;;;5072537;28;20032;-65
2022/01/11 00:09:30;;;;;;;61.15;34.85;;;3.90;63.30;;;;;;5069586;28;20029;-64
2022/01/11 00:11:56;;;;;;;66.35;35.33;;;3.90;63.60;;;;;;5070345;28;20078;-66
2022/01/11 00:14:21;;;;;;;67.65;36.80;;;4.00;63.50;;;;;;5070309;28;20426;-66
2022/01/11 00:16:47;;;;;;;62.15;35.50;;;4.00;63.30;;;;;;5071664;28;20079;-64
2022/01/11 00:19:14;;;;;;;71.60;36.33;;;4.00;62.90;;;;;;5068902;28;20087;-65
2022/01/11 00:21:46;;;;;;;68.43;36.35;;;4.10;63.20;;;;;;5072752;28;20036;-65
2022/01/11 00:24:32;;;;;;;64.65;35.30;;;4.10;62.90;;;;;;5071020;28;20020;-66
2022/01/11 00:27:01;;;;;;;67.90;35.78;;;3.90;62.90;;;;;;5072279;28;20037;-65
2022/01/11 00:29:28;;;;;;;70.13;36.67;;;3.90;63.30;;;;;;5071551;28;20028;-65
2022/01/11 00:31:57;;;;;;;65.45;35.42;;;3.90;63.30;;;;;;5087430;28;20111;-64
2022/01/11 00:34:24;;;;;;;63.53;35.45;;;3.90;63.20;;;;;;5067760;28;20111;-64
2022/01/11 00:36:50;;;;;;;64.15;35.10;;;3.90;63.00;;;;;;5069231;28;20029;-64
2022/01/11 00:39:16;;;;;;;65.05;36.50;;;3.80;62.90;;;;;;5074220;28;20532;-64
2022/01/11 00:41:43;;;;;;;67.30;37.15;;;3.90;63.30;;;;;;5069939;28;20152;-65
2022/01/11 00:44:10;;;;;;;62.50;35.25;;;3.90;63.20;;;;;;5071475;28;20035;-71
2022/01/11 00:46:38;;;;;;;65.68;35.67;;;4.00;63.20;;;;;;5072244;28;20041;-65
2022/01/11 00:49:05;;;;;;;65.35;34.28;;;4.00;62.90;;;;;;5071936;28;20080;-65
2022/01/11 00:51:30;;;;;;;62.92;34.95;;;4.10;62.60;;;;;;5086601;28;20028;-65
2022/01/11 00:53:57;;;;;;;66.13;35.88;;;3.90;62.70;;;;;;5070368;28;20038;-64
2022/01/11 00:56:23;;;;;;;70.00;35.22;;;3.90;63.00;;;;;;5071987;28;20031;-65
2022/01/11 00:58:49;;;;;;;62.60;34.45;;;3.80;62.90;;;;;;5070893;28;20029;-65
2022/01/11 01:01:15;;;;;;;68.45;36.53;;;3.80;63.10;;;;;;5070826;28;20777;-65
2022/01/11 01:03:41;;;;;;;66.97;36.63;;;3.70;63.20;;;;;;5070014;28;20047;-64
2022/01/11 01:06:07;;;;;;;65.38;34.80;;;3.80;63.80;;;;;;5070214;28;20507;-65
2022/01/11 01:08:33;;;;;;;68.88;37.15;;;3.90;63.20;;;;;;5069652;28;20021;-64
2022/01/11 01:10:59;;;;;;;65.35;34.60;;;3.90;62.50;;;;;;5066723;28;20050;-65
2022/01/11 01:13:28;;;;;;;66.68;35.33;;;3.80;62.50;;;;;;5063668;28;20141;-64
2022/01/11 01:15:55;;;;;;;64.55;32.85;;;3.70;62.70;;;;;;5071435;28;20031;-64
2022/01/11 01:18:26;;;;;;;64.65;34.95;;;3.80;62.90;;;;;;5069772;28;20119;-66
2022/01/11 01:20:53;;;;;;;64.95;33.40;;;3.80;62.90;;;;;;5071106;28;20473;-65
2022/01/11 01:23:20;;;;;;;64.03;33.70;;;3.90;62.70;;;;;;5069634;28;20437;-64
2022/01/11 01:25:49;;;;;;;63.08;34.42;;;3.90;62.50;;;;;;5070994;28;20030;-64
2022/01/11 01:28:17;;;;;;;62.45;32.78;;;3.90;62.30;;;;;;5069511;28;20458;-65
2022/01/11 01:30:44;;;;;;;61.72;32.40;;;4.00;62.20;;;;;;5070668;28;20032;-67
2022/01/11 01:33:10;;;;;;;63.35;32.83;;;4.00;62.00;;;;;;5069735;28;20024;-68
2022/01/11 01:35:39;;;;;;;59.97;32.15;;;4.00;61.70;;;;;;5070892;28;20036;-65
2022/01/11 01:38:07;;;;;;;60.85;31.55;;;3.90;61.80;;;;;;5068361;28;20036;-65
2022/01/11 01:40:39;;;;;;;61.42;32.33;;;3.90;61.70;;;;;;5070226;28;20029;-64
2022/01/11 01:43:08;;;;;;;62.25;31.70;;;3.90;62.30;;;;;;5068572;28;20048;-66
2022/01/11 01:45:35;;;;;;;59.83;31.38;;;3.90;62.20;;;;;;5070284;28;20024;-64
2022/01/11 01:48:02;;;;;;;59.53;32.65;;;3.90;61.80;;;;;;5070357;28;20476;-65
2022/01/11 01:50:29;;;;;;;56.25;30.38;;;3.80;62.00;;;;;;5069298;28;20041;-65
2022/01/11 01:52:57;;;;;;;54.38;29.33;;;3.80;62.30;;;;;;5070660;28;20029;-64
2022/01/11 01:55:41;;;;;;;57.10;30.73;;;3.80;62.00;;;;;;5069507;28;20040;-64
2022/01/11 01:58:08;;;;;;;61.08;31.73;;;3.80;61.80;;;;;;5065212;28;20118;-65
2022/01/11 02:00:40;;;;;;;58.80;31.17;;;3.80;62.00;;;;;;5070052;28;20422;-65
2022/01/11 02:03:12;;;;;;;60.38;31.73;;;3.80;62.10;;;;;;5070766;28;20036;-65
2022/01/11 02:05:40;;;;;;;59.70;32.33;;;3.80;62.30;;;;;;5069613;28;20028;-64
2022/01/11 02:08:07;;;;;;;59.67;31.25;;;3.80;62.60;;;;;;5069852;28;20067;-64
2022/01/11 02:10:35;;;;;;;60.25;31.77;;;3.80;62.00;;;;;;5068636;28;20364;-68
2022/01/11 02:13:01;;;;;;;56.22;29.20;;;3.80;62.10;;;;;;5070009;28;20048;-66
2022/01/11 02:15:27;;;;;;;56.15;29.20;;;3.80;62.00;;;;;;5068012;28;20112;-64
2022/01/11 02:17:53;;;;;;;51.22;28.27;;;3.80;61.50;;;;;;5070169;28;20158;-64
2022/01/11 02:20:47;;;;;;;53.03;28.63;;;3.70;61.70;;;;;;5070084;28;20389;-64
2022/01/11 02:23:14;;;;;;;54.53;27.98;;;3.60;61.60;;;;;;5072052;28;20073;-66
2022/01/11 02:25:40;;;;;;;54.20;28.45;;;3.40;61.80;;;;;;5074179;28;20434;-67
2022/01/11 02:28:07;;;;;;;56.20;28.23;;;3.40;62.10;;;;;;5085944;28;20465;-64
2022/01/11 02:30:34;;;;;;;51.47;27.08;;;3.50;62.50;;;;;;5108161;27;20117;-64
2022/01/11 02:33:03;;;;;;;52.72;27.75;;;3.60;62.30;;;;;;5074945;28;20108;-64
2022/01/11 02:35:29;;;;;;;54.33;28.20;;;3.60;61.80;;;;;;5063490;28;20032;-65
2022/01/11 02:37:55;;;;;;;52.45;28.17;;;3.70;61.80;;;;;;5067139;28;20413;-64
2022/01/11 02:40:21;;;;;;;54.28;27.75;;;3.70;61.70;;;;;;5073189;28;20032;-64
2022/01/11 02:42:47;;;;;;;54.08;28.88;;;3.80;61.60;;;;;;5073953;28;20045;-64
2022/01/11 02:45:18;;;;;;;53.42;27.17;;;3.80;61.10;;;;;;5072970;28;20048;-64
2022/01/11 02:47:46;;;;;;;51.15;26.25;;;3.80;61.20;;;;;;5082750;28;20041;-64
2022/01/11 02:50:14;;;;;;;51.03;26.27;;;3.70;60.90;;;;;;5073426;28;20457;-69
2022/01/11 02:52:40;;;;;;;53.60;27.40;;;3.70;61.10;;;;;;5074253;28;20048;-64
2022/01/11 02:55:13;;;;;;;52.47;27.58;;;3.60;60.80;;;;;;5073869;28;20276;-64
2022/01/11 02:57:39;;;;;;;48.08;25.67;;;3.60;61.10;;;;;;5072782;28;20032;-63
2022/01/11 03:00:08;;;;;;;53.08;26.98;;;3.70;61.10;;;;;;5072138;28;20037;-65
2022/01/11 03:02:33;;;;;;;48.20;25.25;;;3.70;60.80;;;;;;5070176;28;20032;-64
2022/01/11 03:04:59;;;;;;;49.90;26.88;;;3.80;61.00;;;;;;5072466;28;20050;-64
2022/01/11 03:07:25;;;;;;;52.10;27.77;;;3.60;60.50;;;;;;5072838;28;20032;-64
2022/01/11 03:10:02;;;;;;;49.17;25.52;;;3.60;60.90;;;;;;5074152;28;20104;-64
2022/01/11 03:12:47;;;;;;;52.40;26.17;;;3.70;60.90;;;;;;5071538;28;20126;-63
2022/01/11 03:15:13;;;;;;;48.63;25.35;;;3.60;60.40;;;;;;5073281;28;20025;-69
2022/01/11 03:17:40;;;;;;;52.28;26.30;;;3.60;61.00;;;;;;5105927;28;20048;-65
2022/01/11 03:20:07;;;;;;;50.60;26.20;;;3.70;60.80;;;;;;5072302;28;20039;-64
2022/01/11 03:22:32;;;;;;;48.47;25.40;;;3.60;60.50;;;;;;5071303;28;20085;-64
2022/01/11 03:24:58;;;;;;;52.65;26.92;;;3.60;60.80;;;;;;5073471;28;20025;-64
2022/01/11 03:27:24;;;;;;;46.25;24.85;;;3.60;60.70;;;;;;5105413;28;20040;-64
2022/01/11 03:29:51;;;;;;;50.72;26.42;;;3.50;60.70;;;;;;5073989;28;20056;-64
2022/01/11 03:32:19;;;;;;;52.97;27.20;;;3.50;61.00;;;;;;5071719;28;20495;-64
2022/01/11 03:34:46;;;;;;;52.33;27.40;;;3.50;61.00;;;;;;5071734;28;20104;-64
2022/01/11 03:37:17;;;;;;;51.83;26.95;;;3.60;61.00;;;;;;5070722;28;20028;-64
2022/01/11 03:39:47;;;;;;;51.08;26.38;;;3.50;60.90;;;;;;5073175;28;20469;-64
2022/01/11 03:42:13;;;;;;;52.05;26.00;;;3.60;60.90;;;;;;5072131;28;20083;-65
2022/01/11 03:44:39;;;;;;;51.67;26.98;;;3.60;60.70;;;;;;5072825;28;20025;-64
2022/01/11 03:47:05;;;;;;;48.20;26.10;;;3.60;60.90;;;;;;5072981;28;20111;-64
2022/01/11 03:49:31;;;;;;;53.95;26.80;;;3.50;60.70;;;;;;5072168;28;20060;-64
2022/01/11 03:52:15;;;;;;;52.13;26.27;;;3.50;60.70;;;;;;5073174;28;20032;-66
2022/01/11 03:55:03;;;;;;;47.72;25.55;;;3.60;61.00;;;;;;5072575;28;20038;-64
2022/01/11 03:57:30;;;;;;;48.70;23.85;;;3.60;60.70;;;;;;5064408;28;20048;-66
2022/01/11 04:00:01;;;;;;;47.35;24.95;;;3.60;60.80;;;;;;5072917;28;20056;-64
2022/01/11 04:02:27;;;;;;;53.53;27.35;;;3.60;60.70;;;;;;5070359;28;20107;-64
2022/01/11 04:04:53;;;;;;;50.60;25.23;;;3.70;60.80;;;;;;5071512;28;20032;-64
2022/01/11 04:07:25;;;;;;;51.97;25.95;;;3.70;60.80;;;;;;5071187;28;20545;-64
2022/01/11 04:09:54;;;;;;;49.53;26.52;;;3.80;60.50;;;;;;5071321;28;20123;-65
2022/01/11 04:12:21;;;;;;;52.00;26.55;;;3.80;60.50;;;;;;5071595;28;20111;-66
2022/01/11 04:14:46;;;;;;;56.72;25.90;;;3.80;60.50;;;;;;5072322;28;20024;-65
2022/01/11 04:17:13;;;;;;;54.17;27.60;;;3.80;60.20;;;;;;5071645;28;20086;-65
2022/01/11 04:19:39;;;;;;;54.13;28.13;;;3.70;60.50;;;;;;5064032;28;20024;-64
2022/01/11 04:22:05;;;;;;;57.30;25.80;;;3.70;60.80;;;;;;5071795;28;20035;-66
2022/01/11 04:24:31;;;;;;;51.67;26.63;;;3.70;60.80;;;;;;5071001;28;20099;-64
2022/01/11 04:26:57;;;;;;;51.22;27.38;;;3.70;60.80;;;;;;5071320;28;20074;-64
2022/01/11 04:29:23;;;;;;;52.97;28.30;;;3.60;60.90;;;;;;5071148;28;20025;-64
2022/01/11 04:31:49;;;;;;;51.60;26.20;;;3.60;60.90;;;;;;5070848;28;20023;-64
2022/01/11 04:34:15;;;;;;;53.50;28.70;;;3.70;61.10;;;;;;5071780;28;20033;-64
2022/01/11 04:36:59;;;;;;;50.70;28.15;;;3.70;60.80;;;;;;5066009;28;20055;-64
2022/01/11 04:39:25;;;;;;;;;;;3.70;61.30;;;;;;5072158;28;20464;-64
2022/01/11 04:41:51;;;;;;;57.15;26.92;;;3.80;60.50;;;;;;5072167;28;19904;-64
2022/01/11 04:44:17;;;;;;;56.75;27.20;;;3.80;60.40;;;;;;5071995;28;20025;-64
2022/01/11 04:46:43;;;;;;;58.30;30.05;;;3.70;60.70;;;;;;5070969;28;20483;-64
2022/01/11 04:49:09;;;;;;;56.25;28.40;;;3.70;60.80;;;;;;5072122;28;20476;-64
2022/01/11 04:51:35;;;;;;;55.38;28.73;;;3.70;60.30;;;;;;5071293;28;20028;-64
2022/01/11 04:54:01;;;;;;;48.47;26.92;;;3.60;60.30;;;;;;5066532;28;20495;-65
2022/01/11 04:56:28;;;;;;;54.13;28.15;;;3.60;60.20;;;;;;5068519;28;20028;-64
2022/01/11 04:58:54;;;;;;;50.13;26.05;;;3.70;60.50;;;;;;5071877;28;20044;-64
2022/01/11 05:01:20;;;;;;;46.35;25.27;;;3.70;59.90;;;;;;5069298;28;20016;-65
2022/01/11 05:03:46;;;;;;;50.70;25.35;;;3.70;60.20;;;;;;5071298;28;20431;-65
2022/01/11 05:06:11;;;;;;;51.85;26.65;;;3.70;60.10;;;;;;5071721;28;20031;-65
2022/01/11 05:08:57;;;;;;;48.70;25.92;;;3.80;60.10;;;;;;5071725;28;20103;-64
2022/01/11 05:11:23;;;;;;;48.40;25.15;;;3.80;60.60;;;;;;5071197;28;20031;-64
2022/01/11 05:13:49;;;;;;;48.60;25.02;;;3.60;59.80;;;;;;5071364;28;20111;-64
2022/01/11 05:16:15;;;;;;;47.38;25.52;;;3.70;60.20;;;;;;5070733;28;20453;-65
2022/01/11 05:18:41;;;;;;;51.88;25.48;;;3.70;60.00;;;;;;5071709;28;20039;-64
2022/01/11 05:21:07;;;;;;;49.90;25.48;;;3.60;60.10;;;;;;5071689;28;20036;-64
2022/01/11 05:23:34;;;;;;;48.63;23.95;;;3.50;60.20;;;;;;5069653;28;20027;-65
2022/01/11 05:26:00;;;;;;;50.20;24.70;;;3.50;60.40;;;;;;5069962;28;20033;-64
2022/01/11 05:28:26;;;;;;;50.55;24.98;;;3.50;60.40;;;;;;5071283;28;20020;-65
2022/01/11 05:30:52;;;;;;;48.40;24.38;;;3.50;60.50;;;;;;5071075;28;20039;-67
2022/01/11 05:33:17;;;;;;;47.63;24.58;;;3.50;60.40;;;;;;5067652;28;20131;-65
2022/01/11 05:35:43;;;;;;;47.92;23.30;;;3.50;59.80;;;;;;5071433;28;20468;-66
2022/01/11 05:38:09;;;;;;;50.53;26.10;;;3.40;60.20;;;;;;5069647;28;20025;-65
2022/01/11 05:40:34;;;;;;;44.17;23.95;;;3.40;60.40;;;;;;5070849;28;20081;-65
2022/01/11 05:43:00;;;;;;;44.95;23.40;;;3.40;60.40;;;;;;5069595;28;20037;-66
2022/01/11 05:45:26;;;;;;;66.57;26.05;;;3.50;60.50;;;;;;5070273;28;20504;-65
2022/01/11 05:47:52;;;;;;;48.75;24.27;;;3.60;60.10;;;;;;5070803;28;20025;-64
2022/01/11 05:50:20;;;;;;;52.17;25.75;;;3.60;59.90;;;;;;5068436;28;20017;-65
2022/01/11 05:52:46;;;;;;;45.80;24.02;;;3.50;59.50;;;;;;5070705;28;20012;-64
2022/01/11 05:55:13;;;;;;;50.13;25.05;;;3.30;59.90;;;;;;5068357;28;20373;-75
2022/01/11 05:57:41;;;;;;;69.78;25.15;;;3.40;60.00;;;;;;5068669;28;20032;-65
2022/01/11 06:00:18;;;;;;;58.38;24.80;;;3.50;59.60;;;;;;5071376;28;20107;-64
2022/01/11 06:02:46;;;;;;;55.72;24.30;;;3.40;59.80;;;;;;5068315;28;20021;-64
2022/01/11 06:05:13;;;;;;;47.50;23.88;;;3.50;59.90;;;;;;5067677;28;20099;-72
2022/01/11 06:07:39;;;;;;;46.78;24.80;;;3.60;60.10;;;;;;5075180;28;20105;-64
2022/01/11 06:10:06;;;;;;;47.85;24.70;;;3.60;59.50;;;;;;5071636;28;20021;-64
2022/01/11 06:12:32;;;;;;;44.88;24.33;;;3.60;59.10;;;;;;5071165;28;20040;-64
2022/01/11 06:14:58;;;;;;;50.38;25.42;;;3.60;58.80;;;;;;5070527;28;20442;-64
2022/01/11 06:17:23;;;;;;;46.55;23.45;;;3.60;59.40;;;;;;5071203;28;20099;-64
2022/01/11 06:19:49;;;;;;;49.70;24.23;;;3.70;59.10;;;;;;5070415;28;20427;-66
2022/01/11 06:22:15;;;;;;;47.75;25.73;;;3.60;59.10;;;;;;5062379;28;20027;-66
2022/01/11 06:24:41;;;;;;;72.15;25.95;;;3.60;59.00;;;;;;5069756;28;20025;-65
2022/01/11 06:27:07;;;;;;;53.05;26.15;;;3.60;59.00;;;;;;5070443;28;20028;-65
2022/01/11 06:29:32;;;;;;;55.78;26.85;;;3.60;58.90;;;;;;5070790;28;20365;-65
2022/01/11 06:31:58;;;;;;;62.63;25.45;;;3.60;58.90;;;;;;5071132;28;20020;-66
2022/01/11 06:34:24;;;;;;;51.80;25.67;;;3.50;59.00;;;;;;5069836;28;20103;-65
2022/01/11 06:36:50;;;;;;;49.63;25.25;;;3.50;58.90;;;;;;5069212;28;20020;-65
2022/01/11 06:39:15;;;;;;;59.47;25.48;;;3.60;59.00;;;;;;5070464;28;20614;-69
2022/01/11 06:41:42;;;;;;;55.63;25.17;;;3.70;58.80;;;;;;5070502;28;20020;-65
2022/01/11 06:44:10;;;;;;;55.70;25.63;;;3.70;58.60;;;;;;5068412;28;20024;-65
2022/01/11 06:46:36;;;;;;;71.07;27.20;;;3.60;58.60;;;;;;5070838;28;20036;-65
2022/01/11 06:49:04;;;;;;;51.88;25.88;;;3.60;58.90;;;;;;5086920;28;20024;-66
2022/01/11 06:51:30;;;;;;;54.67;25.50;;;3.60;58.60;;;;;;5070968;28;20124;-67
2022/01/11 06:53:56;;;;;;;48.03;25.58;;;3.60;58.50;;;;;;5070299;28;20033;-67
2022/01/11 06:56:22;;;;;;;53.50;26.75;;;3.50;58.40;;;;;;5069503;28;20035;-67
2022/01/11 06:58:48;;;;;;;52.58;25.33;;;3.60;58.80;;;;;;5071551;28;20031;-66
2022/01/11 07:03:58;;;;;;;55.53;25.83;;;3.50;58.20;;;;;;5071776;28;20083;-66
2022/01/11 07:06:24;;;;;;;50.63;24.52;;;3.40;58.40;;;;;;5070801;28;20024;-67
2022/01/11 07:08:49;;;;;;;45.28;24.52;;;3.30;58.70;;;;;;5072354;28;20021;-67
2022/01/11 07:11:15;;;;;;;47.95;26.45;;;3.30;58.70;;;;;;5073497;28;20115;-67
2022/01/11 07:13:41;;;;;;;54.10;26.05;;;3.10;58.80;;;;;;5074635;28;20476;-67
2022/01/11 07:16:07;;;;;;;61.72;26.35;;;3.20;59.30;;;;;;5075203;28;20048;-66
2022/01/11 07:18:32;;;;;;;48.30;25.75;;;3.30;59.50;;;;;;5074812;28;20024;-66
2022/01/11 07:20:58;;;;;;;60.20;26.67;;;3.30;59.50;;;;;;5073927;28;20360;-65
2022/01/11 07:23:24;;;;;;;61.97;27.70;;;3.30;59.50;;;;;;5072858;28;20370;-65
2022/01/11 07:25:50;;;;;;;57.35;27.42;;;3.40;59.50;;;;;;5074654;28;20325;-66
2022/01/11 07:28:16;;;;;;;66.32;26.67;;;3.40;59.30;;;;;;5073401;28;20025;-66
2022/01/11 07:31:00;;;;;;;63.45;27.85;;;3.40;59.30;;;;;;5072945;28;20460;-66
2022/01/11 07:33:26;;;;;;;54.15;25.55;;;3.40;59.20;;;;;;5074211;28;20052;-66
2022/01/11 07:35:52;;;;;;;60.15;25.13;;;3.50;59.00;;;;;;5075084;28;20095;-67
2022/01/11 07:38:18;;;;;;;51.72;26.48;;;3.40;58.90;;;;;;5074711;28;20487;-66
2022/01/11 07:40:44;;;;;;;52.35;24.83;;;3.50;58.60;;;;;;5080668;28;20020;-66
2022/01/11 07:43:10;;;;;;;58.05;24.15;;;3.50;58.30;;;;;;5094733;28;20150;-66
2022/01/11 07:45:36;;;;;;;53.13;25.33;;;3.50;58.20;;;;;;5080999;28;20028;-66
2022/01/11 07:48:02;;;;;;;50.88;25.60;;;3.50;58.10;;;;;;5074173;28;20027;-67
2022/01/11 07:50:28;;;;;;;59.60;25.60;;;3.50;58.50;;;;;;5073250;28;20346;-67
2022/01/11 07:52:53;;;;;;;46.65;23.90;;;3.50;58.00;;;;;;5074116;28;20317;-66
2022/01/11 07:55:19;;;;;;;60.60;25.92;;;3.60;58.30;;;;;;5071078;28;20059;-66
2022/01/11 07:57:45;;;;;;;46.92;24.42;;;3.70;57.50;;;;;;5078745;28;20462;-66
2022/01/11 08:00:11;;;;;;;62.85;26.33;;;3.70;57.60;;;;;;5073403;28;20020;-67
2022/01/11 08:02:37;;;;;;;55.15;27.38;;;3.80;57.20;;;;;;5072758;28;20028;-67
2022/01/11 08:05:04;;;;;;;55.70;25.10;;;3.70;57.10;;;;;;5065870;28;20020;-67
2022/01/11 08:07:30;;;;;;;51.70;24.02;;;3.70;57.30;;;;;;5070362;28;20032;-67
2022/01/11 08:09:56;;;;;;;47.92;24.08;;;3.70;57.10;;;;;;5073382;28;20082;-67
2022/01/11 08:12:22;;;;;;;53.42;23.15;;;3.70;57.00;;;;;;5073324;28;20068;-66
2022/01/11 08:14:48;;;;;;;53.58;22.70;;;3.70;56.70;;;;;;5072985;28;20086;-67
2022/01/11 08:17:16;;;;;;;49.63;23.80;;;3.40;56.90;;;;;;5070336;28;20025;-66
2022/01/11 08:19:42;;;;;;;44.22;22.80;;;3.50;57.60;;;;;;5069103;28;20040;-67
2022/01/11 08:22:07;;;;;;;50.35;24.40;;;3.70;57.10;;;;;;5069801;28;20021;-69
2022/01/11 08:24:33;;;;;;;46.65;23.80;;;3.70;57.00;;;;;;5068427;28;20028;-67
2022/01/11 08:26:59;;;;;;;55.28;24.00;;;3.90;56.90;;;;;;5067402;28;20028;-67
2022/01/11 08:29:25;;;;;;;54.25;23.95;;;4.00;56.60;;;;;;5069723;28;20032;-66
2022/01/11 08:31:51;;;;;;;42.65;22.48;;;4.00;55.90;;;;;;5070020;28;20020;-68
2022/01/11 08:34:17;;;;;;;53.88;23.50;;;4.00;55.90;;;;;;5071951;28;20035;-69
2022/01/11 08:36:47;;;;;;;44.35;23.35;;;3.80;55.80;;;;;;5065756;28;20386;-69
2022/01/11 08:39:13;;;;;;;44.33;23.42;;;3.80;56.20;;;;;;5071918;28;20076;-69
2022/01/11 08:41:40;;;;;;;46.13;22.45;;;3.80;56.30;;;;;;5069813;28;20448;-69
2022/01/11 08:44:09;;;;;;;46.05;21.85;;;3.80;56.00;;;;;;5070973;28;20036;-69
2022/01/11 08:46:36;;;;;;;49.22;24.27;;;3.80;56.40;;;;;;5070846;28;20464;-68
2022/01/11 08:49:02;;;;;;;50.65;24.45;;;4.00;56.30;;;;;;5072178;28;20028;-69
2022/01/11 08:51:28;;;;;;;45.67;22.85;;;4.10;56.00;;;;;;5070021;28;20029;-69
2022/01/11 08:53:54;;;;;;;53.55;24.00;;;4.10;55.60;;;;;;5068921;28;20037;-69
2022/01/11 08:56:20;;;;;;;56.78;26.38;;;4.10;55.60;;;;;;5068022;28;20461;-70
2022/01/11 08:58:46;;;;;;;46.53;23.58;;;4.20;55.80;;;;;;5067225;28;20177;-69
2022/01/11 09:01:12;;;;;;;47.03;22.60;;;4.20;55.60;;;;;;5101874;28;20438;-69
2022/01/11 09:03:39;;;;;;;46.05;22.40;;;4.20;55.40;;;;;;5071238;28;20029;-69
2022/01/11 09:06:07;;;;;;;48.92;22.52;;;4.30;55.40;;;;;;5082735;28;20029;-67
2022/01/11 09:08:37;;;;;;;40.83;21.88;;;4.30;54.60;;;;;;5069584;28;20029;-68
2022/01/11 09:11:06;;;;;;;46.25;22.60;;;4.30;54.60;;;;;;5072084;28;20056;-69
2022/01/11 09:13:34;;;;;;;43.40;22.85;;;4.40;55.10;;;;;;5071325;28;20040;-69
2022/01/11 09:16:00;;;;;;;48.25;23.77;;;4.60;54.70;;;;;;5070280;28;20409;-69
2022/01/11 09:18:27;;;;;;;45.60;22.10;;;4.50;53.60;;;;;;5071920;28;20536;-69
2022/01/11 09:20:53;;;;;;;43.88;21.58;;;4.30;54.10;;;;;;5071545;28;20465;-67
2022/01/11 09:23:19;;;;;;;45.55;21.77;;;4.30;54.30;;;;;;5071628;28;20032;-66
2022/01/11 09:25:46;;;;;;;42.35;22.38;;;4.40;54.80;;;;;;5071067;28;20055;-68
2022/01/11 09:28:12;;;;;;;36.90;21.42;;;4.40;54.00;;;;;;5072237;28;20052;-68
2022/01/11 09:30:38;;;;;;;45.28;23.33;;;4.40;54.40;;;;;;5070365;28;20067;-68
2022/01/11 09:33:04;;;;;;;41.13;21.30;;;4.50;54.50;;;;;;5070460;28;20020;-69
2022/01/11 09:35:30;;;;;;;47.03;22.92;;;4.40;54.10;;;;;;5069521;28;20365;-68
2022/01/11 09:37:55;;;;;;;47.90;22.35;;;4.50;54.20;;;;;;5083168;28;20363;-67
2022/01/11 09:40:21;;;;;;;47.53;22.25;;;4.60;53.50;;;;;;5071827;28;20048;-69
2022/01/11 09:42:48;;;;;;;53.13;23.05;;;4.50;53.20;;;;;;5070742;28;20083;-68
2022/01/11 09:45:14;;;;;;;39.50;22.10;;;4.50;53.20;;;;;;5069995;28;20024;-68
2022/01/11 09:47:40;;;;;;;49.63;23.30;;;4.50;53.50;;;;;;5070893;28;20020;-69
2022/01/11 09:50:08;;;;;;;42.42;22.52;;;4.50;53.20;;;;;;5069600;28;20036;-68
2022/01/11 09:52:35;;;;;;;49.03;24.58;;;4.40;53.80;;;;;;5070668;28;20048;-67
2022/01/11 09:55:01;;;;;;;44.63;23.38;;;4.50;54.30;;;;;;5071295;28;20024;-67
2022/01/11 09:57:26;;;;;;;43.45;22.52;;;4.60;53.70;;;;;;5069407;28;20484;-67
2022/01/11 09:59:52;;;;;;;42.97;22.45;;;4.60;53.30;;;;;;5066828;28;20488;-67
2022/01/11 10:05:06;;;;;;;46.20;23.10;;;4.60;53.10;;;;;;5071417;28;20073;-62
2022/01/11 10:07:37;;;;;;;45.05;23.40;;;4.70;53.40;;;;;;5069495;28;20043;-66
2022/01/11 10:10:04;;;;;;;41.58;22.52;;;4.70;52.90;;;;;;5068456;28;20035;-64
2022/01/11 10:12:44;;;;;;;41.17;22.33;;;4.80;52.90;;;;;;5067952;28;20564;-65
2022/01/11 10:15:10;;;;;;;42.83;22.30;;;4.70;52.70;;;;;;5070366;28;20028;-62
2022/01/11 10:17:42;;;;;;;43.65;22.63;;;4.80;52.80;;;;;;5068478;28;20132;-64
2022/01/11 10:20:21;;;;;;;47.80;25.88;;;4.80;52.80;;;;;;5070479;28;20032;-68
2022/01/11 10:22:54;;;;;;;45.70;23.25;;;4.80;52.60;;;;;;5069674;28;20475;-61
2022/01/11 10:25:20;;;;;;;39.50;21.10;;;4.80;52.40;;;;;;5071075;28;20024;-61
2022/01/11 10:28:12;;;;;;;44.17;22.50;;;4.70;52.40;;;;;;5071490;28;20039;-64
2022/01/11 10:30:39;;;;;;;53.45;23.45;;;4.80;52.20;;;;;;5068565;28;20075;-62
2022/01/11 10:35:52;;;;;;;42.38;21.00;;;4.50;52.60;;;;;;5071030;28;20039;-62
2022/01/11 10:38:29;;;;;;;41.63;23.30;;;4.60;52.80;;;;;;5071675;28;20029;-61
2022/01/11 10:40:55;;;;;;;39.15;21.42;;;4.70;52.80;;;;;;5069399;28;20432;-66
2022/01/11 10:43:23;;;;;;;42.28;22.08;;;5.00;52.90;;;;;;5073934;28;20025;-67
2022/01/11 10:45:55;;;;;;;40.38;22.85;;;5.10;51.30;;;;;;5061795;28;20039;-64
2022/01/11 10:48:27;;;;;;;41.45;22.58;;;5.00;52.20;;;;;;5080114;28;20025;-69
2022/01/11 10:51:01;;;;;;;55.33;21.77;;;6.00;52.50;;;;;;5072209;28;20024;-61
2022/01/11 10:53:32;;;;;;;43.90;22.95;;;7.20;48.70;;;;;;5075823;28;20060;-61
2022/01/11 10:56:00;;;;;;;39.35;21.70;;;7.40;45.40;;;;;;5073009;28;20024;-65
2022/01/11 10:58:28;;;;;;;43.25;22.70;;;7.50;46.50;;;;;;5073137;28;20380;-67
2022/01/11 11:00:56;;;;;;;38.70;22.50;;;7.60;45.60;;;;;;5071640;28;20031;-65
2022/01/11 11:03:26;;;;;;;44.60;23.65;;;7.20;46.20;;;;;;5084829;28;20107;-63
2022/01/11 11:06:07;;;;;;;53.45;24.02;;;6.70;46.50;;;;;;5073207;28;20435;-62
2022/01/11 11:08:36;;;;;;;40.88;22.23;;;6.40;47.20;;;;;;5073076;28;20358;-63
2022/01/11 11:11:22;;;;;;;40.05;23.00;;;6.10;48.20;;;;;;5074533;28;20454;-64
2022/01/11 11:13:51;;;;;;;40.65;21.33;;;6.00;48.20;;;;;;5070385;28;20044;-64
2022/01/11 11:16:38;;;;;;;42.95;21.73;;;5.90;48.20;;;;;;5071323;28;20024;-64
2022/01/11 11:19:04;;;;;;;42.47;22.17;;;5.70;48.80;;;;;;5069127;28;20043;-67
2022/01/11 11:21:37;;;;;;;38.33;22.40;;;5.50;49.10;;;;;;5073957;28;20052;-67
2022/01/11 11:24:14;;;;;;;38.28;20.98;;;5.50;50.00;;;;;;5074189;28;20047;-64
2022/01/11 11:26:41;;;;;;;39.75;23.20;;;5.40;49.70;;;;;;5058025;28;20032;-62
2022/01/11 11:29:09;;;;;;;49.30;22.95;;;5.40;50.00;;;;;;5073515;28;20035;-68
2022/01/11 11:31:36;;;;;;;41.92;22.27;;;5.30;50.10;;;;;;5073503;28;20052;-72
2022/01/11 11:34:03;;;;;;;40.38;22.15;;;5.20;50.30;;;;;;5070873;28;20072;-61
2022/01/11 11:36:30;;;;;;;47.63;23.15;;;5.20;50.10;;;;;;5073356;28;20036;-63
2022/01/11 11:39:00;;;;;;;42.78;22.73;;;5.30;50.10;;;;;;5072965;28;20037;-63
2022/01/11 11:41:28;;;;;;;37.40;21.30;;;5.30;49.80;;;;;;5073916;28;20047;-72
2022/01/11 11:44:12;;;;;;;52.08;24.63;;;5.20;49.80;;;;;;5073224;28;20033;-68
2022/01/11 11:47:02;;;;;;;46.03;22.30;;;5.00;50.20;;;;;;5073475;28;20419;-67
2022/01/11 11:49:55;;;;;;;41.78;21.33;;;4.80;50.70;;;;;;5072918;28;20024;-64
2022/01/11 11:52:34;;;;;;;42.50;21.02;;;4.80;51.20;;;;;;5073160;28;20039;-71
2022/01/11 11:55:19;;;;;;;41.35;22.88;;;5.00;51.20;;;;;;5072787;28;20025;-66
2022/01/11 11:57:47;;;;;;;41.38;22.08;;;5.10;51.00;;;;;;5071949;28;20086;-66
2022/01/11 12:00:20;;;;;;;40.35;22.42;;;5.10;50.50;;;;;;5073794;28;20111;-62
2022/01/11 12:02:57;;;;;;;45.08;22.73;;;5.20;50.40;;;;;;5072296;28;20028;-69
2022/01/11 12:05:37;;;;;;;42.67;23.67;;;5.30;50.60;;;;;;5074081;28;20028;-70
2022/01/11 12:08:26;;;;;;;43.17;23.17;;;5.20;51.00;;;;;;5073729;28;20028;-71
2022/01/11 12:10:53;;;;;;;47.30;24.15;;;5.30;51.00;;;;;;5073157;28;20465;-70
2022/01/11 12:13:51;;;;;;;49.53;23.90;;;5.10;51.00;;;;;;5071941;28;20512;-70
2022/01/11 12:16:27;;;;;;;51.72;23.58;;;4.70;51.90;;;;;;5062325;28;20044;-71
2022/01/11 12:19:02;;;;;;;43.92;23.35;;;4.60;52.50;;;;;;5068749;28;20025;-70
2022/01/11 12:21:37;;;;;;;43.00;21.88;;;4.70;52.70;;;;;;5085711;28;20024;-68
2022/01/11 12:24:03;;;;;;;45.17;23.63;;;4.70;52.60;;;;;;5069455;28;20497;-67
2022/01/11 12:26:34;;;;;;;47.60;22.20;;;4.60;53.10;;;;;;5071993;28;20075;-64
2022/01/11 12:29:09;;;;;;;42.20;22.35;;;4.70;52.80;;;;;;5074217;28;20112;-61
2022/01/11 12:31:59;;;;;;;46.08;23.92;;;4.80;52.90;;;;;;5070780;28;20067;-62
2022/01/11 12:34:52;;;;;;;43.63;22.42;;;4.80;52.40;;;;;;5072700;28;20139;-76
2022/01/11 12:37:38;;;;;;;38.50;22.20;;;4.60;52.20;;;;;;5070673;28;20028;-72
2022/01/11 12:40:04;;;;;;;43.83;23.75;;;4.50;52.40;;;;;;5069892;28;20063;-69
2022/01/11 12:42:30;;;;;;;56.97;23.27;;;4.40;52.80;;;;;;5074164;28;20457;-72
2022/01/11 12:47:47;;;;;;;39.20;21.92;;;4.30;53.50;;;;;;5066334;28;20373;-76
2022/01/11 12:50:15;;;;;;;41.05;23.35;;;4.30;53.60;;;;;;5064663;28;20430;-76
2022/01/11 12:52:42;;;;;;;39.53;21.95;;;4.30;53.40;;;;;;5069220;28;20119;-72
2022/01/11 12:55:10;;;;;;;41.25;22.73;;;4.40;53.60;;;;;;5065574;28;20457;-70
2022/01/11 12:57:37;;;;;;;38.92;22.20;;;4.30;53.60;;;;;;5075767;28;20072;-68